• °C
  • Pobieranie danych...
wx


SEKCJA WYDRUKÓW, pokaż »

METAR EPBY 271400Z 22005KT 4700 BR SCT003 BKN008 02/01 Q0995=

METAR EPGD 271400Z 30005KT 260V320 7000 BKN005 02/01 Q0994 =

METAR EPKK 271400Z VRB01KT 9999 FEW033 BKN050 05/M02 Q0996 =

METAR EPKT 271400Z 17003KT CAVOK 02/M01 Q0996 =

METAR EPLB 271400Z 25009KT 9999 SCT018 BKN021 03/02 Q0997 =

METAR EPLL 271400Z 22005KT 160V250 8000 BKN004 00/M01 Q0996 =

METAR EPML 271400Z AUTO 17003KT 130V210 9999 BKN026/// 05/00 Q0997=

METAR EPMO 271400Z 24013KT 8000 BKN010 01/01 Q0995 =

METAR EPPO 271400Z 13006KT 4000 BR OVC005 01/M00 Q0995 =

METAR EPRA 271400Z NIL=

METAR EPRZ 271400Z 22005KT 200V260 9999 OVC014 04/01 Q0997 =

METAR EPSC 271400Z 10006KT CAVOK 03/00 Q0993 =

METAR EPSY 271400Z 29005KT 250V330 9999 OVC011 01/01 Q0994=

METAR EPWA 271400Z 25007KT 9999 BKN012 02/00 Q0996 NOSIG=

METAR EPWR 271400Z 12010KT CAVOK 02/M00 Q0995 =

METAR EPZG 271400Z 10003KT CAVOK 03/01 Q0994 =
 METAR EPKK
Lokalizacja:EPKK Kraków Balice
Czas:14:00 UTC
Średni kierunek wiatru:zmienny
Średnia prędkość wiatru:1 węzłów
Widzialność:10 km i więcej
Pierwsza warstwa chmur:1/8 do 2/8, wysokość podstawy 3300 FT
Druga warstwa chmur:5/8 do 7/8, wysokość podstawy 5000 FT
Temperatura powietrza:5 °C
Temperatura punktu rosy:-2 °C
Ciśnienie QNH:996 hPa



Serwisy IMGW-PIB